createdAt,value
2023-05-09T00:01:31.796Z,24.08
2023-05-09T00:03:59.846Z,24.02
2023-05-09T00:06:28.040Z,24.04
2023-05-09T00:08:55.987Z,24.01
2023-05-09T00:11:23.117Z,24.03
2023-05-09T00:13:50.956Z,24.02
2023-05-09T00:16:18.791Z,24.02
2023-05-09T00:18:47.561Z,24.02
2023-05-09T00:21:14.830Z,23.99
2023-05-09T00:23:41.813Z,24.03
2023-05-09T00:26:10.401Z,23.99
2023-05-09T00:28:39.144Z,23.95
2023-05-09T00:31:06.108Z,23.94
2023-05-09T00:33:33.170Z,23.90
2023-05-09T00:36:00.528Z,23.85
2023-05-09T00:38:27.533Z,23.87
2023-05-09T00:40:54.622Z,23.75
2023-05-09T00:43:22.283Z,23.75
2023-05-09T00:45:50.194Z,23.82
2023-05-09T00:48:17.985Z,23.74
2023-05-09T00:50:45.177Z,23.74
2023-05-09T00:53:12.266Z,23.77
2023-05-09T00:55:40.880Z,23.81
2023-05-09T00:58:07.983Z,23.73
2023-05-09T01:00:35.072Z,23.65
2023-05-09T01:03:02.544Z,23.65
2023-05-09T01:05:40.924Z,23.66
2023-05-09T01:08:22.175Z,23.63
2023-05-09T01:10:59.574Z,23.59
2023-05-09T01:13:57.218Z,23.59
2023-05-09T01:16:43.990Z,23.59
2023-05-09T01:19:28.962Z,23.58
2023-05-09T01:21:57.543Z,23.57
2023-05-09T01:24:46.635Z,23.47
2023-05-09T01:27:33.202Z,23.46
2023-05-09T01:30:04.042Z,23.44
2023-05-09T01:32:35.706Z,23.49
2023-05-09T01:35:05.379Z,23.46
2023-05-09T01:37:35.021Z,23.47
2023-05-09T01:40:10.603Z,23.45
2023-05-09T01:42:54.752Z,23.39
2023-05-09T01:45:24.047Z,23.37
2023-05-09T01:47:51.672Z,23.35
2023-05-09T01:50:20.175Z,23.35
2023-05-09T01:52:52.481Z,23.33
2023-05-09T01:55:21.784Z,23.31
2023-05-09T01:57:50.482Z,23.31
2023-05-09T02:03:24.369Z,23.26
2023-05-09T02:05:52.414Z,23.26
2023-05-09T02:08:23.156Z,23.23
2023-05-09T02:10:50.395Z,23.16
2023-05-09T02:13:17.572Z,23.12
2023-05-09T02:15:46.137Z,23.12
2023-05-09T02:18:14.047Z,23.06
2023-05-09T02:20:41.281Z,23.05
2023-05-09T02:23:08.850Z,23.06
2023-05-09T02:25:36.590Z,23.08
2023-05-09T02:28:04.263Z,23.10
2023-05-09T02:30:37.101Z,23.07
2023-05-09T02:33:07.745Z,23.00
2023-05-09T02:35:37.588Z,22.99
2023-05-09T02:38:07.101Z,22.95
2023-05-09T02:40:35.763Z,22.98
2023-05-09T02:43:03.118Z,22.96
2023-05-09T02:45:30.378Z,22.98
2023-05-09T02:47:57.670Z,22.97
2023-05-09T02:50:25.292Z,22.95
2023-05-09T02:52:52.731Z,22.96
2023-05-09T02:55:19.875Z,22.89
2023-05-09T02:57:51.975Z,22.88
2023-05-09T03:01:19.403Z,22.88
2023-05-09T03:03:46.859Z,22.84
2023-05-09T03:06:15.276Z,22.85
2023-05-09T03:08:42.372Z,22.85
2023-05-09T03:11:10.496Z,22.84
2023-05-09T03:13:37.658Z,22.83
2023-05-09T03:16:05.425Z,22.82
2023-05-09T03:18:32.542Z,22.73
2023-05-09T03:21:00.642Z,22.73
2023-05-09T03:23:29.290Z,22.72
2023-05-09T03:25:56.453Z,22.69
2023-05-09T03:28:23.800Z,22.66
2023-05-09T03:30:51.028Z,22.69
2023-05-09T03:33:21.475Z,22.66
2023-05-09T03:35:49.434Z,22.66
2023-05-09T03:38:16.524Z,22.66
2023-05-09T03:40:43.559Z,22.60
2023-05-09T03:43:11.849Z,22.57
2023-05-09T03:45:39.075Z,22.56
2023-05-09T03:48:11.502Z,22.53
2023-05-09T03:50:44.656Z,22.51
2023-05-09T03:53:13.237Z,22.48
2023-05-09T03:55:41.751Z,22.48
2023-05-09T03:58:10.102Z,22.47
2023-05-09T04:00:40.831Z,22.46
2023-05-09T04:03:13.873Z,22.45
2023-05-09T04:05:45.929Z,22.45
2023-05-09T04:08:21.934Z,22.44
2023-05-09T04:10:53.420Z,22.36
2023-05-09T04:13:20.622Z,22.39
2023-05-09T04:15:47.746Z,22.36
2023-05-09T04:18:14.769Z,22.38
2023-05-09T04:20:41.919Z,22.39
2023-05-09T04:23:09.642Z,22.26
2023-05-09T04:25:37.504Z,22.36
2023-05-09T04:28:04.682Z,22.36
2023-05-09T04:30:31.660Z,22.32
2023-05-09T04:32:59.408Z,22.29
2023-05-09T04:35:28.391Z,22.35
2023-05-09T04:37:55.781Z,22.32
2023-05-09T04:40:25.443Z,22.35
2023-05-09T04:42:57.694Z,22.33
2023-05-09T04:45:27.926Z,22.35
2023-05-09T04:47:55.935Z,22.29
2023-05-09T04:50:23.238Z,22.35
2023-05-09T04:52:50.314Z,22.35
2023-05-09T04:55:17.976Z,22.34
2023-05-09T04:57:53.422Z,22.42
2023-05-09T05:00:20.775Z,22.36
2023-05-09T05:02:49.247Z,22.36
2023-05-09T05:05:16.780Z,22.22
2023-05-09T05:07:44.275Z,22.09
2023-05-09T05:10:15.505Z,22.15
2023-05-09T05:12:46.958Z,22.18
2023-05-09T05:15:15.296Z,22.11
2023-05-09T05:17:45.344Z,22.16
2023-05-09T05:20:13.040Z,22.18
2023-05-09T05:22:45.084Z,22.18
2023-05-09T05:25:13.578Z,22.20
2023-05-09T05:27:42.438Z,22.18
2023-05-09T05:30:12.433Z,22.24
2023-05-09T05:32:39.528Z,22.11
2023-05-09T05:35:06.988Z,22.07
2023-05-09T05:37:37.747Z,22.06
2023-05-09T05:40:06.275Z,22.20
2023-05-09T05:42:35.007Z,22.09
2023-05-09T05:45:04.628Z,22.28
2023-05-09T05:47:35.046Z,22.28
2023-05-09T05:50:04.568Z,22.30
2023-05-09T05:52:31.908Z,22.43
2023-05-09T05:55:00.950Z,22.44
2023-05-09T05:57:28.080Z,22.36
2023-05-09T05:59:55.252Z,22.49
2023-05-09T06:02:22.750Z,22.55
2023-05-09T06:04:53.329Z,22.55
2023-05-09T06:07:21.705Z,22.56
2023-05-09T06:09:48.766Z,22.59
2023-05-09T06:12:17.237Z,22.60
2023-05-09T06:14:44.292Z,22.59
2023-05-09T06:17:11.851Z,22.73
2023-05-09T06:19:39.560Z,22.73
2023-05-09T06:22:06.919Z,22.71
2023-05-09T06:24:36.335Z,22.76
2023-05-09T06:27:04.916Z,22.68
2023-05-09T06:29:32.145Z,22.66
2023-05-09T06:32:02.727Z,22.56
2023-05-09T06:34:30.038Z,22.69
2023-05-09T06:36:57.297Z,22.84
2023-05-09T06:39:24.753Z,22.75
2023-05-09T06:41:51.953Z,22.87
2023-05-09T06:44:25.543Z,22.88
2023-05-09T06:46:52.969Z,22.90
2023-05-09T06:49:20.031Z,22.82
2023-05-09T06:51:47.033Z,23.03
2023-05-09T06:54:14.127Z,22.92
2023-05-09T06:56:41.540Z,23.05
2023-05-09T06:59:08.621Z,23.01
2023-05-09T07:01:35.888Z,22.88
2023-05-09T07:04:03.029Z,23.08
2023-05-09T07:06:30.518Z,23.06
2023-05-09T07:08:57.666Z,23.29
2023-05-09T07:11:24.873Z,23.36
2023-05-09T07:13:51.837Z,23.44
2023-05-09T07:16:19.198Z,23.56
2023-05-09T07:18:46.146Z,23.34
2023-05-09T07:21:13.914Z,23.32
2023-05-09T07:23:41.168Z,23.52
2023-05-09T07:26:08.282Z,23.73
2023-05-09T07:28:35.683Z,23.93
2023-05-09T07:31:03.540Z,24.12
2023-05-09T07:33:30.723Z,24.30
2023-05-09T07:36:08.496Z,24.43
2023-05-09T07:38:35.518Z,24.53
2023-05-09T07:41:02.610Z,24.50
2023-05-09T07:43:35.092Z,24.60
2023-05-09T07:46:02.225Z,24.66
2023-05-09T07:48:29.336Z,24.81
2023-05-09T07:50:56.370Z,24.95
2023-05-09T07:53:23.336Z,24.99
2023-05-09T07:55:50.470Z,25.07
2023-05-09T07:58:17.889Z,25.18
2023-05-09T08:00:45.109Z,25.37
2023-05-09T08:03:12.400Z,25.24
2023-05-09T08:05:39.902Z,25.24
2023-05-09T08:08:07.970Z,25.61
2023-05-09T08:10:35.240Z,25.75
2023-05-09T08:13:02.323Z,25.85
2023-05-09T08:15:29.580Z,26.09
2023-05-09T08:17:56.630Z,26.16
2023-05-09T08:20:24.540Z,26.10
2023-05-09T08:22:51.610Z,26.41
2023-05-09T08:25:18.722Z,26.16
2023-05-09T08:27:45.751Z,26.49
2023-05-09T08:30:13.446Z,26.58
2023-05-09T08:32:40.753Z,26.68
2023-05-09T08:35:09.175Z,26.70
2023-05-09T08:37:36.994Z,26.82
2023-05-09T08:40:07.984Z,26.94
2023-05-09T08:42:37.767Z,26.72
2023-05-09T08:45:10.619Z,26.70
2023-05-09T08:47:38.973Z,26.71
2023-05-09T08:50:06.821Z,26.66
2023-05-09T08:52:34.257Z,26.63
2023-05-09T08:55:07.661Z,26.56
2023-05-09T08:57:37.456Z,26.58
2023-05-09T09:00:11.439Z,26.21
2023-05-09T09:02:42.033Z,26.49
2023-05-09T09:05:19.692Z,26.46
2023-05-09T09:07:57.943Z,25.78
2023-05-09T09:10:29.857Z,26.19
2023-05-09T09:12:58.408Z,26.19
2023-05-09T09:15:30.135Z,26.40
2023-05-09T09:18:00.378Z,25.93
2023-05-09T09:20:34.601Z,26.28
2023-05-09T09:23:04.986Z,26.30
2023-05-09T09:25:32.065Z,26.50
2023-05-09T09:28:01.334Z,26.31
2023-05-09T09:30:29.451Z,26.32
2023-05-09T09:32:59.285Z,26.15
2023-05-09T09:35:26.805Z,26.30
2023-05-09T09:38:01.761Z,26.23
2023-05-09T09:40:28.870Z,25.94
2023-05-09T09:42:56.210Z,25.90
2023-05-09T09:45:23.292Z,25.67
2023-05-09T09:47:50.500Z,25.92
2023-05-09T09:50:19.709Z,25.93
2023-05-09T09:52:56.036Z,25.90
2023-05-09T09:55:24.972Z,26.24
2023-05-09T09:57:53.510Z,26.29
2023-05-09T10:00:26.339Z,26.86
2023-05-09T10:02:54.827Z,27.06
2023-05-09T10:05:29.931Z,27.05
2023-05-09T10:08:04.739Z,27.08
2023-05-09T10:10:34.127Z,27.00
2023-05-09T10:13:12.578Z,27.28
2023-05-09T10:15:53.132Z,27.29
2023-05-09T10:18:27.366Z,27.41
2023-05-09T10:20:56.622Z,27.08
2023-05-09T10:23:25.553Z,27.06
2023-05-09T10:26:21.468Z,26.71
2023-05-09T10:28:53.466Z,26.49
2023-05-09T10:31:29.930Z,25.78
2023-05-09T10:34:01.653Z,26.11
2023-05-09T10:36:28.781Z,26.24
2023-05-09T10:38:56.502Z,26.84
2023-05-09T10:41:24.276Z,26.59
2023-05-09T10:43:52.201Z,26.67
2023-05-09T10:46:20.088Z,26.27
2023-05-09T10:48:49.013Z,26.42
2023-05-09T10:51:17.280Z,26.42
2023-05-09T10:53:45.789Z,26.46
2023-05-09T10:56:32.638Z,26.30
2023-05-09T10:59:01.170Z,26.05
2023-05-09T11:01:39.536Z,26.35
2023-05-09T11:04:16.814Z,26.41
2023-05-09T11:06:54.563Z,26.24
2023-05-09T11:09:29.798Z,26.54
2023-05-09T11:12:06.184Z,26.90
2023-05-09T11:14:40.162Z,26.88
2023-05-09T11:17:27.640Z,27.00
2023-05-09T11:20:28.312Z,26.83
2023-05-09T11:23:00.193Z,27.40
2023-05-09T11:25:30.115Z,27.16
2023-05-09T11:28:03.440Z,27.04
2023-05-09T11:30:42.043Z,27.36
2023-05-09T11:33:30.430Z,27.46
2023-05-09T11:36:20.210Z,28.03
2023-05-09T11:38:48.181Z,27.40
2023-05-09T11:41:15.940Z,27.60
2023-05-09T11:43:44.916Z,27.48
2023-05-09T11:46:13.039Z,27.79
2023-05-09T11:48:42.371Z,27.39
2023-05-09T11:51:18.585Z,27.71
2023-05-09T11:53:54.562Z,28.01
2023-05-09T11:56:23.273Z,28.28
2023-05-09T11:58:52.090Z,27.96
2023-05-09T12:01:19.984Z,28.07
2023-05-09T12:03:48.016Z,27.97
2023-05-09T12:06:20.055Z,27.74
2023-05-09T12:08:47.588Z,28.08
2023-05-09T12:11:15.758Z,28.13
2023-05-09T12:13:50.778Z,28.16
2023-05-09T12:16:19.938Z,27.88
2023-05-09T12:18:49.042Z,27.37
2023-05-09T12:21:17.618Z,26.79
2023-05-09T12:23:47.834Z,27.05
2023-05-09T12:26:16.458Z,26.70
2023-05-09T12:28:44.161Z,27.16
2023-05-09T12:31:11.949Z,26.93
2023-05-09T12:33:39.751Z,26.74
2023-05-09T12:36:10.574Z,26.59
2023-05-09T12:38:38.703Z,27.04
2023-05-09T12:41:18.140Z,26.92
2023-05-09T12:43:53.765Z,26.90
2023-05-09T12:46:22.314Z,27.17
2023-05-09T12:48:50.241Z,27.15
2023-05-09T12:51:22.151Z,27.27
2023-05-09T12:53:50.012Z,27.53
2023-05-09T12:56:19.148Z,27.63
2023-05-09T12:58:56.072Z,27.30
2023-05-09T13:01:28.265Z,27.27
2023-05-09T13:04:06.581Z,27.44
2023-05-09T13:06:36.253Z,27.31
2023-05-09T13:09:06.555Z,27.61
2023-05-09T13:11:33.907Z,27.50
2023-05-09T13:14:04.414Z,27.40
2023-05-09T13:16:31.801Z,27.16
2023-05-09T13:19:05.655Z,27.23
2023-05-09T13:21:38.641Z,27.28
2023-05-09T13:24:17.451Z,27.52
2023-05-09T13:26:57.294Z,27.47
2023-05-09T13:29:38.931Z,26.84
2023-05-09T13:32:20.339Z,26.85
2023-05-09T13:34:49.965Z,26.32
2023-05-09T13:37:20.804Z,26.49
2023-05-09T13:39:49.253Z,26.87
2023-05-09T13:42:18.423Z,26.27
2023-05-09T13:44:54.707Z,26.68
2023-05-09T13:47:32.949Z,27.14
2023-05-09T13:50:13.225Z,27.27
2023-05-09T13:52:53.506Z,27.37
2023-05-09T13:55:23.293Z,26.91
2023-05-09T13:57:50.522Z,26.94
2023-05-09T14:00:18.467Z,27.10
2023-05-09T14:02:50.129Z,27.72
2023-05-09T14:05:20.459Z,26.89
2023-05-09T14:07:47.757Z,26.97
2023-05-09T14:10:25.159Z,27.29
2023-05-09T14:12:59.411Z,26.37
2023-05-09T14:15:41.177Z,27.33
2023-05-09T14:18:21.822Z,27.14
2023-05-09T14:20:57.098Z,27.25
2023-05-09T14:23:34.773Z,26.90
2023-05-09T14:26:05.921Z,26.20
2023-05-09T14:28:45.400Z,26.81
2023-05-09T14:31:25.120Z,26.69
2023-05-09T14:34:06.383Z,26.66
2023-05-09T14:36:38.539Z,27.05
2023-05-09T14:39:14.293Z,26.78
2023-05-09T14:41:51.036Z,27.05
2023-05-09T14:44:30.918Z,27.10
2023-05-09T14:47:03.945Z,27.34
2023-05-09T14:49:38.033Z,26.28
2023-05-09T14:52:13.432Z,26.95
2023-05-09T14:55:00.417Z,26.98
2023-05-09T14:57:40.545Z,26.73
2023-05-09T15:00:22.025Z,26.78
2023-05-09T15:02:57.118Z,26.59
2023-05-09T15:05:37.528Z,26.12
2023-05-09T15:08:17.030Z,26.15
2023-05-09T15:10:51.040Z,26.51
2023-05-09T15:13:22.076Z,25.96
2023-05-09T15:16:02.164Z,25.75
2023-05-09T15:18:45.150Z,26.34
2023-05-09T15:21:29.682Z,26.28
2023-05-09T15:24:09.851Z,26.00
2023-05-09T15:26:39.977Z,26.24
2023-05-09T15:29:27.309Z,26.13
2023-05-09T15:32:13.118Z,26.34
2023-05-09T15:34:48.665Z,26.80
2023-05-09T15:37:25.346Z,26.56
2023-05-09T15:39:59.847Z,25.58
2023-05-09T15:42:38.916Z,25.54
2023-05-09T15:45:16.135Z,25.47
2023-05-09T15:47:48.425Z,25.43
2023-05-09T15:50:26.128Z,25.63
2023-05-09T15:53:01.894Z,25.66
2023-05-09T15:55:47.397Z,25.77
2023-05-09T15:58:19.812Z,26.02
2023-05-09T16:00:59.239Z,26.15
2023-05-09T16:03:27.006Z,26.15
2023-05-09T16:05:56.886Z,26.10
2023-05-09T16:08:24.505Z,26.01
2023-05-09T16:10:55.053Z,26.02
2023-05-09T16:13:23.217Z,25.96
2023-05-09T16:15:53.595Z,25.91
2023-05-09T16:18:24.086Z,25.76
2023-05-09T16:21:10.063Z,25.38
2023-05-09T16:23:37.446Z,25.71
2023-05-09T16:26:09.755Z,26.10
2023-05-09T16:28:40.375Z,26.16
2023-05-09T16:31:13.777Z,26.20
2023-05-09T16:33:44.419Z,26.30
2023-05-09T16:36:14.965Z,26.26
2023-05-09T16:38:42.403Z,26.39
2023-05-09T16:41:13.217Z,26.44
2023-05-09T16:43:41.946Z,26.27
2023-05-09T16:46:09.715Z,26.25
2023-05-09T16:48:38.589Z,25.83
2023-05-09T16:51:08.482Z,25.52
2023-05-09T16:53:42.939Z,25.37
2023-05-09T16:56:15.878Z,25.63
2023-05-09T16:58:45.958Z,25.63
2023-05-09T17:01:22.183Z,25.31
2023-05-09T17:03:51.878Z,25.05
2023-05-09T17:06:19.748Z,25.37
2023-05-09T17:08:46.911Z,25.38
2023-05-09T17:11:14.192Z,25.22
2023-05-09T17:13:44.486Z,25.42
2023-05-09T17:16:17.540Z,25.18
2023-05-09T17:18:48.085Z,25.10
2023-05-09T17:21:23.875Z,25.15
2023-05-09T17:23:54.302Z,25.19
2023-05-09T17:26:23.021Z,25.28
2023-05-09T17:28:52.749Z,25.30
2023-05-09T17:31:28.447Z,25.29
2023-05-09T17:33:56.517Z,25.10
2023-05-09T17:36:24.094Z,25.25
2023-05-09T17:38:51.525Z,25.13
2023-05-09T17:41:18.774Z,25.31
2023-05-09T17:43:46.256Z,25.27
2023-05-09T17:46:16.395Z,25.25
2023-05-09T17:48:46.540Z,25.31
2023-05-09T17:51:13.804Z,25.28
2023-05-09T17:53:41.523Z,25.19
2023-05-09T17:56:16.104Z,25.17
2023-05-09T17:58:51.059Z,25.26
2023-05-09T18:01:48.318Z,25.31
2023-05-09T18:04:28.088Z,25.31
2023-05-09T18:07:05.656Z,25.31
2023-05-09T18:09:36.601Z,25.34
2023-05-09T18:12:07.303Z,25.21
2023-05-09T18:14:35.047Z,25.24
2023-05-09T18:17:07.366Z,25.16
2023-05-09T18:19:42.182Z,25.12
2023-05-09T18:22:16.083Z,25.09
2023-05-09T18:24:51.652Z,25.23
2023-05-09T18:27:40.199Z,25.08
2023-05-09T18:30:14.395Z,25.08
2023-05-09T18:32:45.020Z,25.00
2023-05-09T18:35:15.471Z,25.01
2023-05-09T18:37:44.356Z,24.99
2023-05-09T18:40:20.334Z,25.05
2023-05-09T18:45:39.974Z,24.87
2023-05-09T18:48:07.692Z,24.76
2023-05-09T18:50:34.951Z,24.62
2023-05-09T18:53:05.659Z,24.62
2023-05-09T18:55:35.261Z,24.61
2023-05-09T18:58:04.698Z,24.61
2023-05-09T19:00:32.064Z,24.64
2023-05-09T19:02:59.287Z,24.43
2023-05-09T19:05:27.617Z,24.49
2023-05-09T19:07:54.810Z,24.37
2023-05-09T19:10:24.770Z,24.49
2023-05-09T19:12:57.435Z,24.46
2023-05-09T19:15:25.015Z,24.39
2023-05-09T19:17:57.580Z,24.06
2023-05-09T19:20:33.551Z,24.20
2023-05-09T19:23:11.536Z,24.09
2023-05-09T19:26:04.373Z,23.85
2023-05-09T19:28:48.142Z,23.92
2023-05-09T19:31:16.599Z,23.73
2023-05-09T19:33:50.592Z,23.58
2023-05-09T19:36:22.888Z,23.42
2023-05-09T19:38:57.642Z,23.26
2023-05-09T19:41:27.625Z,23.45
2023-05-09T19:43:56.701Z,23.42
2023-05-09T19:46:27.690Z,23.38
2023-05-09T19:48:57.456Z,23.42
2023-05-09T19:51:24.709Z,23.42
2023-05-09T19:53:55.531Z,23.32
2023-05-09T19:56:30.275Z,23.38
2023-05-09T19:58:57.977Z,23.23
2023-05-09T20:01:26.600Z,23.28
2023-05-09T20:03:59.408Z,23.11
2023-05-09T20:06:36.313Z,23.23
2023-05-09T20:09:32.804Z,23.17
2023-05-09T20:12:03.129Z,23.02
2023-05-09T20:14:50.355Z,23.10
2023-05-09T20:17:23.028Z,23.14
2023-05-09T20:19:58.048Z,23.13
2023-05-09T20:22:30.771Z,23.02
2023-05-09T20:25:09.555Z,23.10
2023-05-09T20:27:41.439Z,23.09
2023-05-09T20:30:21.316Z,23.22
2023-05-09T20:32:48.463Z,23.08
2023-05-09T20:35:18.809Z,23.27
2023-05-09T20:37:59.495Z,23.27
2023-05-09T20:40:39.395Z,23.38
2023-05-09T20:43:15.164Z,23.41
2023-05-09T20:45:51.056Z,23.46
2023-05-09T20:48:26.749Z,23.54
2023-05-09T20:51:02.406Z,23.59
2023-05-09T20:53:40.340Z,23.56
2023-05-09T20:56:15.198Z,23.57
2023-05-09T20:58:51.773Z,23.49
2023-05-09T21:01:29.793Z,23.59
2023-05-09T21:04:07.166Z,23.58
2023-05-09T21:06:36.954Z,23.65
2023-05-09T21:09:07.899Z,23.70
2023-05-09T21:11:56.166Z,23.71
2023-05-09T21:14:28.813Z,23.47
2023-05-09T21:16:59.055Z,23.66
2023-05-09T21:19:34.482Z,23.66
2023-05-09T21:22:04.894Z,23.70
2023-05-09T21:24:39.334Z,23.68
2023-05-09T21:27:20.301Z,23.68
2023-05-09T21:29:50.229Z,23.70
2023-05-09T21:32:33.978Z,23.71
2023-05-09T21:35:04.501Z,23.72
2023-05-09T21:37:34.531Z,23.69
2023-05-09T21:40:05.790Z,23.70
2023-05-09T21:42:40.322Z,23.61
2023-05-09T21:45:11.092Z,23.45
2023-05-09T21:47:40.722Z,23.50
2023-05-09T21:50:08.311Z,23.58
2023-05-09T21:52:37.773Z,23.49
2023-05-09T21:55:13.017Z,23.56
2023-05-09T21:57:59.724Z,23.51
2023-05-09T22:00:49.307Z,23.61
2023-05-09T22:03:50.094Z,23.62
2023-05-09T22:06:51.999Z,23.53
2023-05-09T22:09:26.571Z,23.54
2023-05-09T22:11:59.421Z,23.63
2023-05-09T22:14:30.730Z,23.67
2023-05-09T22:16:58.530Z,23.69
2023-05-09T22:19:29.108Z,23.72
2023-05-09T22:22:01.144Z,23.64
2023-05-09T22:24:30.830Z,23.65
2023-05-09T22:27:03.717Z,23.64
2023-05-09T22:29:39.417Z,23.62
2023-05-09T22:32:09.327Z,23.64
2023-05-09T22:34:41.808Z,23.61
2023-05-09T22:37:09.807Z,23.62
2023-05-09T22:39:38.562Z,23.63
2023-05-09T22:42:07.148Z,23.65
2023-05-09T22:44:39.279Z,23.64
2023-05-09T22:47:10.020Z,23.50
2023-05-09T22:49:42.664Z,23.57
2023-05-09T22:52:11.494Z,23.54
2023-05-09T22:54:38.643Z,23.53
2023-05-09T22:57:08.994Z,23.58
2023-05-09T22:59:46.137Z,23.51
2023-05-09T23:02:13.398Z,23.46
2023-05-09T23:04:44.031Z,23.45
2023-05-09T23:07:19.667Z,23.42
2023-05-09T23:09:49.886Z,23.33
2023-05-09T23:12:24.405Z,23.05
2023-05-09T23:14:51.739Z,22.85
2023-05-09T23:17:18.906Z,23.00
2023-05-09T23:19:46.426Z,22.97
2023-05-09T23:22:13.537Z,22.95
2023-05-09T23:24:40.732Z,22.95
2023-05-09T23:27:10.908Z,23.09
2023-05-09T23:29:40.468Z,23.11
2023-05-09T23:32:09.810Z,23.15
2023-05-09T23:34:37.077Z,23.18
2023-05-09T23:37:07.993Z,23.21
2023-05-09T23:39:35.740Z,23.18
2023-05-09T23:42:02.902Z,23.18
2023-05-09T23:44:30.365Z,23.18
2023-05-09T23:46:57.614Z,23.19
2023-05-09T23:49:30.486Z,23.23
2023-05-09T23:51:57.868Z,23.24
2023-05-09T23:54:24.968Z,23.20
2023-05-09T23:56:52.349Z,23.15
2023-05-09T23:59:19.513Z,23.12
